Grenora, ND (58845)

5:55 PM CDT on June 18, 2018 (GMT -0500)
South of Alamo, ND | | Change Station
Active Advisory: Flood Warning

Elev 2116 ft 48.50 °N, 103.55 °W | Updated 5 minutes ago

Partly Cloudy
Partly Cloudy
72.9 °F
Feels Like 77 °F
N
9
Wind Variable Wind from ESE
Gusts 9.0 mph

Today
High -- | Low -- °F
--% Chance of Precip.
Yesterday
High -- | Low -- °F
Precip. -- in
Pressure 30.11 in
Visibility 10.0 miles
Clouds Mostly Cloudy 8000 ft
Heat Index 77 °F
Dew Point 52 °F
Humidity 47%
Rainfall 0.00 in
Snow Depth Not available.
5:52 AM 10:01 PM
Waxing Crescent, 34% visible
METAR KISN 182152Z AUTO 10009KT 10SM BKN080 26/11 A3012 RMK AO2 SLP196 T02560106
Pressure 30.11 in
Visibility 10.0 miles
Clouds Mostly Cloudy 8000 ft
Heat Index 77 °F
Dew Point 52 °F
Humidity 47%
Rainfall 0.00 in
Snow Depth Not available.
5:52 AM 10:01 PM
Waxing Crescent, 34% visible
METAR KISN 182152Z AUTO 10009KT 10SM BKN080 26/11 A3012 RMK AO2 SLP196 T02560106

Get Your Daily Forecast Email!

Thanks for signing up!

Be on the lookout for a verification email in your inbox.

You'll start receiving severe weather alerts in your inbox..

×

10-Day Weather Forecast

Almanac

Astronomy

Jun. 18, 2018 Rise Set
Actual Time
Civil Twilight
Nautical Twilight
Astronomical Twilight
Moon
Length of Visible Light
Length of Day
Tomorrow will be .
, % of the Moon is Illuminated

Today's Extremes

State Highs State Lows

Community

WunderPhotos

Category 6

Welcome to Category 6. This is the collective home for Weather Underground's featured writeups by Dr. Jeff Masters (right), Bob Henson (left), Chris Burt, and other regular contributors.

Nearby

Air Quality

  Air Quality AQ Index Pollutant
Not available.

Snow Depth

Station Depth Elevation

Earthquake Activity

City Distance Mag. Time & Date
Minimum magnitude displayed is 2.5.

Coastal Water Temperatures

Place Temperature

Stations

Nearby Weather Stations

Station Location Temp. Windchill Dew Point Humidity Wind Precip. Elev Updated Type
                   

Watches & Warnings

Flood Warning
Issued: 3:01 PM CDT Jun. 18, 2018 – National Weather Service

The National Weather Service in Bismarck has issued a

* Flood Warning for
the Missouri River near Williston
* until further notice
* at 01pm Monday the stage was... 24.9 feet
* moderate flooding is occurring and major flooding is forecast
* flood stage is 22.0 feet
* the river rose above flood stage and will continue rising to near
26.2 feet by Sunday early afternoon. Additional rises may be
possible thereafter.
* Impact... at 28.0 feet... water backing up into the little Muddy river
begins to cover 54th street northwest on the east side of
Williston.



             Fld observed forecasts (7am)
location stg stg day/time Tue Wed Thu Fri Sat

Missouri River basin
Williston 22 24.9 Mon 2 PM 25.1 25.3 25.3 25.4 25.8


Lat... Lon 4801 10404 4815 10366 4807 10337 4795 10347
      4807 10366 4775 10404




Ajs